createdAt,value
2018-11-25T00:00:31.357Z,5.90
2018-11-25T00:03:01.202Z,5.80
2018-11-25T00:05:31.103Z,5.80
2018-11-25T00:08:00.996Z,5.80
2018-11-25T00:10:30.877Z,5.70
2018-11-25T00:13:00.713Z,5.80
2018-11-25T00:15:30.623Z,5.90
2018-11-25T00:18:00.504Z,6.00
2018-11-25T00:20:30.350Z,6.00
2018-11-25T00:23:00.289Z,5.90
2018-11-25T00:25:30.221Z,5.90
2018-11-25T00:28:00.071Z,5.80
2018-11-25T00:30:30.109Z,5.70
2018-11-25T00:32:59.939Z,5.80
2018-11-25T00:35:29.816Z,5.90
2018-11-25T00:37:59.679Z,6.00
2018-11-25T00:40:29.533Z,6.00
2018-11-25T00:42:59.394Z,5.90
2018-11-25T00:45:29.244Z,5.80
2018-11-25T00:47:59.081Z,5.80
2018-11-25T00:50:28.951Z,5.70
2018-11-25T00:52:58.805Z,5.70
2018-11-25T00:55:28.670Z,5.70
2018-11-25T00:57:58.526Z,5.70
2018-11-25T01:00:28.373Z,5.70
2018-11-25T01:02:58.233Z,5.70
2018-11-25T01:05:28.175Z,5.70
2018-11-25T01:07:58.044Z,5.70
2018-11-25T01:10:27.933Z,5.80
2018-11-25T01:12:57.781Z,6.00
2018-11-25T01:15:27.677Z,5.90
2018-11-25T01:17:57.539Z,5.90
2018-11-25T01:20:27.414Z,5.80
2018-11-25T01:22:57.284Z,5.80
2018-11-25T01:25:27.123Z,5.70
2018-11-25T01:27:56.980Z,5.70
2018-11-25T01:30:26.873Z,5.70
2018-11-25T01:32:56.734Z,5.70
2018-11-25T01:35:26.591Z,5.70
2018-11-25T01:37:56.451Z,5.70
2018-11-25T01:40:26.336Z,5.70
2018-11-25T01:42:56.211Z,5.70
2018-11-25T01:45:26.079Z,6.00
2018-11-25T01:47:55.930Z,6.00
2018-11-25T01:50:25.796Z,6.10
2018-11-25T01:52:55.638Z,6.10
2018-11-25T01:55:25.470Z,6.10
2018-11-25T01:57:55.331Z,6.00
2018-11-25T02:00:25.159Z,5.90
2018-11-25T02:02:55.016Z,5.90
2018-11-25T02:05:24.874Z,5.90
2018-11-25T02:07:54.751Z,5.80
2018-11-25T02:10:24.614Z,5.90
2018-11-25T02:12:54.558Z,5.90
2018-11-25T02:15:24.417Z,5.90
2018-11-25T02:17:54.276Z,6.00
2018-11-25T02:20:25.138Z,6.00
2018-11-25T02:22:56.196Z,5.90
2018-11-25T02:25:26.184Z,6.10
2018-11-25T02:27:56.005Z,6.20
2018-11-25T02:30:25.867Z,6.20
2018-11-25T02:32:55.738Z,6.10
2018-11-25T02:35:25.622Z,6.00
2018-11-25T02:37:55.542Z,6.00
2018-11-25T02:40:25.426Z,6.00
2018-11-25T02:42:55.311Z,6.20
2018-11-25T02:45:25.163Z,6.10
2018-11-25T02:47:55.025Z,6.00
2018-11-25T02:50:28.200Z,6.00
2018-11-25T02:53:00.623Z,5.90
2018-11-25T02:55:30.530Z,5.80
2018-11-25T02:58:00.918Z,5.80
2018-11-25T03:00:30.300Z,5.80
2018-11-25T03:03:00.222Z,5.80
2018-11-25T03:05:30.104Z,5.80
2018-11-25T03:08:01.966Z,5.80
2018-11-25T03:10:31.844Z,6.00
2018-11-25T03:13:01.724Z,6.10
2018-11-25T03:15:31.649Z,6.20
2018-11-25T03:18:01.509Z,6.30
2018-11-25T03:20:31.359Z,6.40
2018-11-25T03:23:01.214Z,6.20
2018-11-25T03:25:31.047Z,6.10
2018-11-25T03:28:00.905Z,6.10
2018-11-25T03:30:30.789Z,6.00
2018-11-25T03:33:00.695Z,5.90
2018-11-25T03:35:30.547Z,5.90
2018-11-25T03:38:00.389Z,6.00
2018-11-25T03:40:30.295Z,5.90
2018-11-25T03:43:00.150Z,5.90
2018-11-25T03:45:30.008Z,5.80
2018-11-25T03:47:59.889Z,5.80
2018-11-25T03:50:29.794Z,5.90
2018-11-25T03:52:59.632Z,6.00
2018-11-25T03:55:29.465Z,6.00
2018-11-25T03:57:59.325Z,5.90
2018-11-25T04:00:29.216Z,5.80
2018-11-25T04:02:59.064Z,5.70
2018-11-25T04:05:29.037Z,5.70
2018-11-25T04:07:58.810Z,5.70
2018-11-25T04:10:28.793Z,5.70
2018-11-25T04:12:58.597Z,5.60
2018-11-25T04:15:28.520Z,5.60
2018-11-25T04:17:58.419Z,5.60
2018-11-25T04:20:28.358Z,5.70
2018-11-25T04:22:58.225Z,5.70
2018-11-25T04:25:28.071Z,5.60
2018-11-25T04:27:57.915Z,5.60
2018-11-25T04:30:27.820Z,5.80
2018-11-25T04:32:57.648Z,5.80
2018-11-25T04:35:27.488Z,5.70
2018-11-25T04:37:57.423Z,5.60
2018-11-25T04:40:27.275Z,5.60
2018-11-25T04:42:57.110Z,5.50
2018-11-25T04:45:26.980Z,5.50
2018-11-25T04:47:56.830Z,5.50
2018-11-25T04:50:26.745Z,5.50
2018-11-25T04:52:56.590Z,5.50
2018-11-25T04:55:26.455Z,5.60
2018-11-25T04:57:56.338Z,5.50
2018-11-25T05:00:26.217Z,5.40
2018-11-25T05:02:56.064Z,5.40
2018-11-25T05:05:25.917Z,5.50
2018-11-25T05:07:55.808Z,5.50
2018-11-25T05:10:25.715Z,5.40
2018-11-25T05:12:55.586Z,5.40
2018-11-25T05:15:25.443Z,5.40
2018-11-25T05:17:55.337Z,5.40
2018-11-25T05:20:25.215Z,5.40
2018-11-25T05:22:55.089Z,5.40
2018-11-25T05:25:24.971Z,5.50
2018-11-25T05:27:54.837Z,5.60
2018-11-25T05:30:24.721Z,5.60
2018-11-25T05:32:54.605Z,5.50
2018-11-25T05:35:24.465Z,5.40
2018-11-25T05:37:54.325Z,5.40
2018-11-25T05:40:24.163Z,5.30
2018-11-25T05:42:54.058Z,5.40
2018-11-25T05:45:23.936Z,5.30
2018-11-25T05:47:53.816Z,5.40
2018-11-25T05:50:24.966Z,5.40
2018-11-25T05:52:53.557Z,5.40
2018-11-25T05:55:23.447Z,5.30
2018-11-25T05:57:53.330Z,5.30
2018-11-25T06:00:28.494Z,5.40
2018-11-25T06:02:58.331Z,5.30
2018-11-25T06:05:28.200Z,5.30
2018-11-25T06:07:58.095Z,5.30
2018-11-25T06:10:27.934Z,5.30
2018-11-25T06:12:57.811Z,5.30
2018-11-25T06:15:27.700Z,5.30
2018-11-25T06:17:57.582Z,5.30
2018-11-25T06:20:27.506Z,5.30
2018-11-25T06:22:57.381Z,5.30
2018-11-25T06:25:27.235Z,5.30
2018-11-25T06:27:57.157Z,5.30
2018-11-25T06:30:26.963Z,5.30
2018-11-25T06:32:56.869Z,5.30
2018-11-25T06:35:26.739Z,5.30
2018-11-25T06:37:56.606Z,5.30
2018-11-25T06:40:26.479Z,5.30
2018-11-25T06:42:56.349Z,5.30
2018-11-25T06:45:28.065Z,5.30
2018-11-25T06:47:58.900Z,5.30
2018-11-25T06:50:28.768Z,5.30
2018-11-25T06:52:58.651Z,5.30
2018-11-25T06:55:28.543Z,5.30
2018-11-25T06:57:58.426Z,5.30
2018-11-25T07:00:28.327Z,5.30
2018-11-25T07:02:58.200Z,5.30
2018-11-25T07:05:28.091Z,5.30
2018-11-25T07:07:57.948Z,5.30
2018-11-25T07:10:27.860Z,5.30
2018-11-25T07:12:57.742Z,5.30
2018-11-25T07:15:27.595Z,5.30
2018-11-25T07:17:57.495Z,5.30
2018-11-25T07:20:27.361Z,5.30
2018-11-25T07:22:57.246Z,5.30
2018-11-25T07:25:27.148Z,5.30
2018-11-25T07:27:57.009Z,5.30
2018-11-25T07:30:28.242Z,5.30
2018-11-25T07:32:58.180Z,5.30
2018-11-25T07:35:28.845Z,5.40
2018-11-25T07:37:58.830Z,5.40
2018-11-25T07:40:28.758Z,5.50
2018-11-25T07:42:58.710Z,5.50
2018-11-25T07:45:30.434Z,5.50
2018-11-25T07:47:58.463Z,5.50
2018-11-25T07:50:28.340Z,5.40
2018-11-25T07:52:58.279Z,5.40
2018-11-25T07:55:28.298Z,5.40
2018-11-25T07:57:58.185Z,5.30
2018-11-25T08:00:28.233Z,5.30
2018-11-25T08:02:58.127Z,5.30
2018-11-25T08:05:28.617Z,5.40
2018-11-25T08:07:58.472Z,5.40
2018-11-25T08:10:28.344Z,5.50
2018-11-25T08:12:58.258Z,5.60
2018-11-25T08:15:28.179Z,5.60
2018-11-25T08:17:58.133Z,5.50
2018-11-25T08:20:27.978Z,5.50
2018-11-25T08:22:57.868Z,5.50
2018-11-25T08:25:27.724Z,5.50
2018-11-25T08:27:57.593Z,5.50
2018-11-25T08:30:27.447Z,5.50
2018-11-25T08:32:57.359Z,5.50
2018-11-25T08:35:27.278Z,5.60
2018-11-25T08:37:57.261Z,5.60
2018-11-25T08:40:27.110Z,5.60
2018-11-25T08:42:57.043Z,5.70
2018-11-25T08:45:26.925Z,5.70
2018-11-25T08:47:56.796Z,5.60
2018-11-25T08:50:26.639Z,5.60
2018-11-25T08:52:56.564Z,5.60
2018-11-25T08:55:26.848Z,5.60
2018-11-25T08:57:56.755Z,5.70
2018-11-25T09:00:27.373Z,5.70
2018-11-25T09:02:57.879Z,5.70
2018-11-25T09:05:27.725Z,5.80
2018-11-25T09:07:57.722Z,5.80
2018-11-25T09:10:27.580Z,5.90
2018-11-25T09:12:58.645Z,5.90
2018-11-25T09:15:33.185Z,5.80
2018-11-25T09:18:03.352Z,5.90
2018-11-25T09:20:32.896Z,5.90
2018-11-25T09:23:02.761Z,6.00
2018-11-25T09:25:33.379Z,6.00
2018-11-25T09:28:04.250Z,6.00
2018-11-25T09:30:34.616Z,6.10
2018-11-25T09:33:04.538Z,6.10
2018-11-25T09:35:34.475Z,6.20
2018-11-25T09:38:04.326Z,6.20
2018-11-25T09:40:34.195Z,6.30
2018-11-25T09:43:04.066Z,6.30
2018-11-25T09:45:33.970Z,6.30
2018-11-25T09:48:03.825Z,6.40
2018-11-25T09:50:33.725Z,6.40
2018-11-25T09:53:03.575Z,6.50
2018-11-25T09:55:33.897Z,6.50
2018-11-25T09:58:03.342Z,6.60
2018-11-25T10:00:35.463Z,6.50
2018-11-25T10:03:07.543Z,6.60
2018-11-25T10:05:37.331Z,6.60
2018-11-25T10:08:07.208Z,6.60
2018-11-25T10:10:37.060Z,6.50
2018-11-25T10:13:06.948Z,6.60
2018-11-25T10:15:36.823Z,6.50
2018-11-25T10:18:06.849Z,6.50
2018-11-25T10:20:36.718Z,6.40
2018-11-25T10:23:06.833Z,6.30
2018-11-25T10:25:36.719Z,6.30
2018-11-25T10:28:06.717Z,6.20
2018-11-25T10:30:36.588Z,6.20
2018-11-25T10:33:09.223Z,6.20
2018-11-25T10:35:39.079Z,6.20
2018-11-25T10:38:09.036Z,6.30
2018-11-25T10:40:38.948Z,6.20
2018-11-25T10:43:08.811Z,6.20
2018-11-25T10:45:38.676Z,6.30
2018-11-25T10:48:08.582Z,6.30
2018-11-25T10:50:38.438Z,6.40
2018-11-25T10:53:08.297Z,6.40
2018-11-25T10:55:38.148Z,6.50
2018-11-25T10:58:08.010Z,6.60
2018-11-25T11:00:43.076Z,6.80
2018-11-25T11:03:18.240Z,6.90
2018-11-25T11:05:54.438Z,6.90
2018-11-25T11:08:24.352Z,7.00
2018-11-25T11:10:54.237Z,7.00
2018-11-25T11:13:24.116Z,7.00
2018-11-25T11:15:53.983Z,7.10
2018-11-25T11:18:23.910Z,7.20
2018-11-25T11:20:53.777Z,7.30
2018-11-25T11:23:25.041Z,7.40
2018-11-25T11:25:54.903Z,7.50
2018-11-25T11:28:24.772Z,7.50
2018-11-25T11:30:54.745Z,7.60
2018-11-25T11:33:24.618Z,7.80
2018-11-25T11:35:54.564Z,7.80
2018-11-25T11:38:24.441Z,7.80
2018-11-25T11:40:54.311Z,7.80
2018-11-25T11:43:24.191Z,7.80
2018-11-25T11:45:54.175Z,7.80
2018-11-25T11:48:24.068Z,7.80
2018-11-25T11:50:53.955Z,7.80
2018-11-25T11:53:23.822Z,7.80
2018-11-25T11:55:53.704Z,7.70
2018-11-25T11:58:25.861Z,7.80
2018-11-25T12:00:56.503Z,7.80
2018-11-25T12:03:26.802Z,7.80
2018-11-25T12:05:56.236Z,7.80
2018-11-25T12:08:26.116Z,7.80
2018-11-25T12:10:55.986Z,7.80
2018-11-25T12:13:25.848Z,7.70
2018-11-25T12:15:55.701Z,7.70
2018-11-25T12:18:25.646Z,7.70
2018-11-25T12:20:55.532Z,7.80
2018-11-25T12:23:25.461Z,7.70
2018-11-25T12:25:55.340Z,7.70
2018-11-25T12:28:25.217Z,7.70
2018-11-25T12:30:55.133Z,7.70
2018-11-25T12:33:25.185Z,7.70
2018-11-25T12:35:55.171Z,7.70
2018-11-25T12:38:25.041Z,7.70
2018-11-25T12:40:55.042Z,7.70
2018-11-25T12:43:24.902Z,7.60
2018-11-25T12:45:54.877Z,7.70
2018-11-25T12:48:24.712Z,7.70
2018-11-25T12:50:54.571Z,7.80
2018-11-25T12:53:24.516Z,7.80
2018-11-25T12:55:54.397Z,7.90
2018-11-25T12:58:24.275Z,8.00
2018-11-25T13:00:54.404Z,8.10
2018-11-25T13:03:24.235Z,8.10
2018-11-25T13:05:54.090Z,8.20
2018-11-25T13:08:23.962Z,8.40
2018-11-25T13:10:53.841Z,8.60
2018-11-25T13:13:23.728Z,8.60
2018-11-25T13:15:53.596Z,8.70
2018-11-25T13:18:23.481Z,8.60
2018-11-25T13:20:53.345Z,8.50
2018-11-25T13:23:23.216Z,8.40
2018-11-25T13:25:53.104Z,8.30
2018-11-25T13:28:23.006Z,8.30
2018-11-25T13:30:52.896Z,8.20
2018-11-25T13:33:22.746Z,8.20
2018-11-25T13:35:53.732Z,8.20
2018-11-25T13:38:23.639Z,8.10
2018-11-25T13:40:53.541Z,8.00
2018-11-25T13:43:23.468Z,8.00
2018-11-25T13:45:53.347Z,8.00
2018-11-25T13:48:23.233Z,7.90
2018-11-25T13:50:53.136Z,7.90
2018-11-25T13:53:23.047Z,7.90
2018-11-25T13:55:52.912Z,7.90
2018-11-25T13:58:22.813Z,7.90
2018-11-25T14:00:53.382Z,7.90
2018-11-25T14:03:38.175Z,7.90
2018-11-25T14:06:12.099Z,7.90
2018-11-25T14:08:42.660Z,7.90
2018-11-25T14:11:14.573Z,7.90
2018-11-25T14:13:44.404Z,7.80
2018-11-25T14:16:18.182Z,7.80
2018-11-25T14:18:48.066Z,7.80
2018-11-25T14:21:17.962Z,7.70
2018-11-25T14:23:47.800Z,7.80
2018-11-25T14:26:23.558Z,7.80
2018-11-25T14:28:53.720Z,7.70
2018-11-25T14:31:23.620Z,7.70
2018-11-25T14:33:53.513Z,7.60
2018-11-25T14:36:23.389Z,7.60
2018-11-25T14:38:53.279Z,7.60
2018-11-25T14:41:23.123Z,7.50
2018-11-25T14:43:53.019Z,7.60
2018-11-25T14:46:22.847Z,7.60
2018-11-25T14:48:52.848Z,7.50
2018-11-25T14:51:22.684Z,7.50
2018-11-25T14:53:52.687Z,7.40
2018-11-25T14:56:22.462Z,7.40
2018-11-25T14:58:52.328Z,7.40
2018-11-25T15:01:29.008Z,7.30
2018-11-25T15:03:59.409Z,7.30
2018-11-25T15:06:29.730Z,7.30
2018-11-25T15:08:59.272Z,7.30
2018-11-25T15:11:29.107Z,7.20
2018-11-25T15:13:58.988Z,7.20
2018-11-25T15:16:28.863Z,7.10
2018-11-25T15:18:58.778Z,7.10
2018-11-25T15:21:28.638Z,7.00
2018-11-25T15:23:58.493Z,7.00
2018-11-25T15:26:28.390Z,6.90
2018-11-25T15:28:58.264Z,6.90
2018-11-25T15:31:28.124Z,6.90
2018-11-25T15:33:58.053Z,6.80
2018-11-25T15:36:27.984Z,6.80
2018-11-25T15:38:57.852Z,6.70
2018-11-25T15:41:27.715Z,6.70
2018-11-25T15:43:57.561Z,6.70
2018-11-25T15:46:27.416Z,6.70
2018-11-25T15:48:57.316Z,6.60
2018-11-25T15:51:28.197Z,6.60
2018-11-25T15:53:58.121Z,6.60
2018-11-25T15:56:28.084Z,6.60
2018-11-25T15:58:57.967Z,6.60
2018-11-25T16:01:27.866Z,6.50
2018-11-25T16:03:57.801Z,6.50
2018-11-25T16:06:30.906Z,6.50
2018-11-25T16:09:00.903Z,6.50
2018-11-25T16:11:30.729Z,6.50
2018-11-25T16:14:00.588Z,6.50
2018-11-25T16:16:30.563Z,6.40
2018-11-25T16:19:00.367Z,6.40
2018-11-25T16:21:30.211Z,6.40
2018-11-25T16:24:00.126Z,6.30
2018-11-25T16:26:33.485Z,6.40
2018-11-25T16:29:10.581Z,6.30
2018-11-25T16:31:40.482Z,6.30
2018-11-25T16:34:10.391Z,6.40
2018-11-25T16:36:40.252Z,6.40
2018-11-25T16:39:11.171Z,6.40
2018-11-25T16:41:41.061Z,6.30
2018-11-25T16:44:10.983Z,6.40
2018-11-25T16:46:40.837Z,6.30
2018-11-25T16:49:10.774Z,6.30
2018-11-25T16:51:40.684Z,6.30
2018-11-25T16:54:10.566Z,6.40
2018-11-25T16:56:40.470Z,6.40
2018-11-25T16:59:10.401Z,6.40
2018-11-25T17:01:40.331Z,6.40
2018-11-25T17:04:10.263Z,6.40
2018-11-25T17:06:41.940Z,6.30
2018-11-25T17:09:13.266Z,6.40
2018-11-25T17:11:43.171Z,6.40
2018-11-25T17:14:13.935Z,6.40
2018-11-25T17:16:43.883Z,6.30
2018-11-25T17:19:14.989Z,6.30
2018-11-25T17:21:44.850Z,6.30
2018-11-25T17:24:14.765Z,6.30
2018-11-25T17:26:44.755Z,6.30
2018-11-25T17:29:14.756Z,6.30
2018-11-25T17:31:44.732Z,6.30
2018-11-25T17:34:14.877Z,6.30
2018-11-25T17:36:44.750Z,6.20
2018-11-25T17:39:14.710Z,6.20
2018-11-25T17:41:44.702Z,6.20
2018-11-25T17:44:14.647Z,6.20
2018-11-25T17:46:44.593Z,6.20
2018-11-25T17:49:14.561Z,6.20
2018-11-25T17:51:44.460Z,6.10
2018-11-25T17:54:14.437Z,6.10
2018-11-25T17:56:44.437Z,6.10
2018-11-25T17:59:14.396Z,6.10
2018-11-25T18:01:44.375Z,6.10
2018-11-25T18:04:14.335Z,6.10
2018-11-25T18:06:44.243Z,6.10
2018-11-25T18:09:14.187Z,6.10
2018-11-25T18:11:44.104Z,6.10
2018-11-25T18:14:14.095Z,6.20
2018-11-25T18:16:44.184Z,6.20
2018-11-25T18:19:22.207Z,6.20
2018-11-25T18:21:59.614Z,6.30
2018-11-25T18:24:29.580Z,6.30
2018-11-25T18:26:59.483Z,6.30
2018-11-25T18:29:29.538Z,6.30
2018-11-25T18:31:59.441Z,6.30
2018-11-25T18:34:29.336Z,6.30
2018-11-25T18:36:59.180Z,6.30
2018-11-25T18:39:29.123Z,6.30
2018-11-25T18:41:59.034Z,6.30
2018-11-25T18:44:28.938Z,6.30
2018-11-25T18:46:58.910Z,6.30
2018-11-25T18:49:29.120Z,6.30
2018-11-25T18:52:05.109Z,6.30
2018-11-25T18:54:28.988Z,6.20
2018-11-25T18:56:58.878Z,6.20
2018-11-25T18:59:28.850Z,6.20
2018-11-25T19:02:06.168Z,6.20
2018-11-25T19:04:36.390Z,6.20
2018-11-25T19:07:06.948Z,6.20
2018-11-25T19:09:36.846Z,6.10
2018-11-25T19:12:06.942Z,6.10
2018-11-25T19:14:36.871Z,6.10
2018-11-25T19:17:06.856Z,6.10
2018-11-25T19:19:37.014Z,6.10
2018-11-25T19:22:06.955Z,6.00
2018-11-25T19:24:36.911Z,6.00
2018-11-25T19:27:07.285Z,6.00
2018-11-25T19:29:37.301Z,6.00
2018-11-25T19:32:07.822Z,6.00
2018-11-25T19:34:37.799Z,5.90
2018-11-25T19:37:07.738Z,5.90
2018-11-25T19:39:37.836Z,5.90
2018-11-25T19:42:07.737Z,5.90
2018-11-25T19:44:37.700Z,5.90
2018-11-25T19:47:07.855Z,5.80
2018-11-25T19:49:37.909Z,5.80
2018-11-25T19:52:07.923Z,5.80
2018-11-25T19:54:37.826Z,5.70
2018-11-25T19:57:07.708Z,5.70
2018-11-25T19:59:37.702Z,5.70
2018-11-25T20:02:07.605Z,5.70
2018-11-25T20:04:39.027Z,5.70
2018-11-25T20:07:08.933Z,5.70
2018-11-25T20:09:38.908Z,5.70
2018-11-25T20:12:08.907Z,5.70
2018-11-25T20:14:38.860Z,5.70
2018-11-25T20:17:14.222Z,5.70
2018-11-25T20:19:44.164Z,5.70
2018-11-25T20:22:19.513Z,5.60
2018-11-25T20:24:49.668Z,5.60
2018-11-25T20:27:25.159Z,5.60
2018-11-25T20:29:55.160Z,5.60
2018-11-25T20:32:30.320Z,5.60
2018-11-25T20:35:00.515Z,5.60
2018-11-25T20:37:30.551Z,5.60
2018-11-25T20:40:00.511Z,5.60
2018-11-25T20:42:30.649Z,5.60
2018-11-25T20:45:00.593Z,5.60
2018-11-25T20:47:30.611Z,5.60
2018-11-25T20:50:00.602Z,5.60
2018-11-25T20:52:35.906Z,5.60
2018-11-25T20:55:07.252Z,5.60
2018-11-25T20:57:37.373Z,5.60
2018-11-25T21:00:13.004Z,5.60
2018-11-25T21:02:43.413Z,5.60
2018-11-25T21:05:16.684Z,5.60
2018-11-25T21:07:46.618Z,5.60
2018-11-25T21:10:18.077Z,5.50
2018-11-25T21:12:51.834Z,5.50
2018-11-25T21:15:21.707Z,5.50
2018-11-25T21:17:51.600Z,5.50
2018-11-25T21:20:24.720Z,5.50
2018-11-25T21:22:54.680Z,5.50
2018-11-25T21:25:24.906Z,5.50
2018-11-25T21:27:54.937Z,5.50
2018-11-25T21:30:26.399Z,5.50
2018-11-25T21:32:58.548Z,5.50
2018-11-25T21:35:28.443Z,5.50
2018-11-25T21:37:58.361Z,5.50
2018-11-25T21:40:28.277Z,5.50
2018-11-25T21:42:58.212Z,5.50
2018-11-25T21:45:28.176Z,5.50
2018-11-25T21:47:58.145Z,5.50
2018-11-25T21:50:29.162Z,5.50
2018-11-25T21:52:59.097Z,5.50
2018-11-25T21:55:28.994Z,5.50
2018-11-25T21:57:58.972Z,5.50
2018-11-25T22:00:29.344Z,5.40
2018-11-25T22:02:59.267Z,5.40
2018-11-25T22:05:29.214Z,5.50
2018-11-25T22:07:59.107Z,5.40
2018-11-25T22:10:29.070Z,5.40
2018-11-25T22:12:58.929Z,5.40
2018-11-25T22:15:28.852Z,5.30
2018-11-25T22:17:58.732Z,5.30
2018-11-25T22:20:28.684Z,5.30
2018-11-25T22:22:58.564Z,5.30
2018-11-25T22:25:28.452Z,5.30
2018-11-25T22:27:58.461Z,5.30
2018-11-25T22:30:28.339Z,5.30
2018-11-25T22:32:58.258Z,5.30
2018-11-25T22:35:28.156Z,5.30
2018-11-25T22:37:58.127Z,5.30
2018-11-25T22:40:27.995Z,5.30
2018-11-25T22:42:57.984Z,5.30
2018-11-25T22:45:27.842Z,5.30
2018-11-25T22:47:57.719Z,5.40
2018-11-25T22:50:27.866Z,5.40
2018-11-25T22:52:57.793Z,5.40
2018-11-25T22:55:27.828Z,5.40
2018-11-25T22:57:57.813Z,5.40
2018-11-25T23:00:31.725Z,5.40
2018-11-25T23:03:01.689Z,5.40
2018-11-25T23:05:48.753Z,5.40
2018-11-25T23:08:18.671Z,5.40
2018-11-25T23:10:48.567Z,5.40
2018-11-25T23:13:18.473Z,5.30
2018-11-25T23:15:48.341Z,5.30
2018-11-25T23:18:18.253Z,5.30
2018-11-25T23:20:48.218Z,5.20
2018-11-25T23:23:18.072Z,5.20
2018-11-25T23:25:47.985Z,5.20
2018-11-25T23:28:17.872Z,5.20
2018-11-25T23:30:47.818Z,5.10
2018-11-25T23:33:17.744Z,5.10
2018-11-25T23:35:47.624Z,5.20
2018-11-25T23:38:17.467Z,5.20
2018-11-25T23:40:47.394Z,5.20
2018-11-25T23:43:17.302Z,5.20
2018-11-25T23:45:47.236Z,5.30
2018-11-25T23:48:17.100Z,5.30
2018-11-25T23:50:46.978Z,5.30
2018-11-25T23:53:16.851Z,5.30
2018-11-25T23:55:46.762Z,5.30
2018-11-25T23:58:16.711Z,5.30
